Latest Weather Forecast - Thursday 22nd September 2022(6pm)

Forecast Period: 

6 pm 22nd September, 2022 to 6 am 23rd September,2022

Synopsis:
Unstable conditions trailing a tropical wave are affecting the islands
Forecast:
Partly cloudy to cloudy with some scattered moderate to heavy showers and chance of isolated thunderstorms

Weather Advisory:

The flash-flood watch has been extended to 6 am 23rd September 2022. Residents and motorists in areas prone to flash-flood and landslides or near rivers and streams should exercise caution

Winds :

ESE-E  at 15km/h-25km/h with higher gusts near showers
Sea Conditions:
Moderate in open water with swells from 1.5  to 2.0 m

Marine Advisory:

Small craft operators and sea bathers are asked to exercise caution for occasional gusty winds and above normal sea swells

Upcoming Tides:
High: 04:05 am  03:06 pm ****
Low: 

 10:40 pm (22nd)

08:25 am 11:10 pm

Aviation WX

[Source: ADDS]
METAR
TVSA 012100Z 00000KT 9999 SCT018 29/25 Q1013 NOSIG =
TVSA 011700Z 0118/0218 10007KT 9999 SCT018
TAF
TVSA 011700Z 0118/0218 10007KT 9999 SCT018 =
SR / SS: 09:53 / 21:54 UTC (Sunrise Sunset 2022-10-01)